Almora, Minnesota
Current Conditions -  °F | °C
As of 1:15 PM on Friday 28 Nov 2014 (Local Time) from KADC Reporting Station
Overcast Overcast  
Wind Chill:   Ceiling: 4800
Heat Index: 12°   Visibility: 10mi
Dew Point:   Wind: 9mph
Humidity: 79%   Direction: 110°ESE
Pressure: 29.81"   Gusts: NA
Location:  46.3245°N, 95.3401°W
Report Text: KADC 281915Z AUTO 11008KT 10SM SCT015 OVC048 M11/M14 A2981 RMK AO2
Loading
Personal Weather Stations






























Interactive Weather Map New forecast layout! Learn more

10-Day Weather Forecast

Advertisements
Track Severe Weather on mobile